sensor_id;sensor_type;location;lat;lon;timestamp;pressure;altitude;pressure_sealevel;temperature;humidity
33845;BME280;20145;43.118;25.694;2024-01-16T00:00:18;97771.72;;;9.74;63.47
33845;BME280;20145;43.118;25.694;2024-01-16T00:02:44;97789.59;;;10.02;63.59
33845;BME280;20145;43.118;25.694;2024-01-16T00:05:10;97751.06;;;9.76;63.30
33845;BME280;20145;43.118;25.694;2024-01-16T00:07:39;97779.13;;;10.07;62.06
33845;BME280;20145;43.118;25.694;2024-01-16T00:10:07;97784.13;;;10.12;62.04
33845;BME280;20145;43.118;25.694;2024-01-16T00:12:33;97721.00;;;9.76;63.69
33845;BME280;20145;43.118;25.694;2024-01-16T00:14:59;97790.91;;;10.14;63.15
33845;BME280;20145;43.118;25.694;2024-01-16T00:17:24;97794.59;;;10.07;63.60
33845;BME280;20145;43.118;25.694;2024-01-16T00:19:50;97798.72;;;10.11;63.22
33845;BME280;20145;43.118;25.694;2024-01-16T00:22:15;97798.13;;;10.04;62.25
33845;BME280;20145;43.118;25.694;2024-01-16T00:24:41;97789.28;;;10.12;62.34
33845;BME280;20145;43.118;25.694;2024-01-16T00:27:07;97795.19;;;10.14;61.29
33845;BME280;20145;43.118;25.694;2024-01-16T00:29:32;97797.97;;;10.09;60.59
33845;BME280;20145;43.118;25.694;2024-01-16T00:31:58;97777.66;;;10.00;61.31
33845;BME280;20145;43.118;25.694;2024-01-16T00:34:24;97798.44;;;10.19;60.43
33845;BME280;20145;43.118;25.694;2024-01-16T00:36:50;97795.66;;;10.25;61.91
33845;BME280;20145;43.118;25.694;2024-01-16T00:39:16;97770.19;;;10.17;61.36
33845;BME280;20145;43.118;25.694;2024-01-16T00:41:41;97784.50;;;10.24;60.33
33845;BME280;20145;43.118;25.694;2024-01-16T00:44:07;97780.13;;;10.26;61.26
33845;BME280;20145;43.118;25.694;2024-01-16T00:46:33;97767.53;;;10.19;61.28
33845;BME280;20145;43.118;25.694;2024-01-16T00:48:58;97794.81;;;10.24;60.79
33845;BME280;20145;43.118;25.694;2024-01-16T00:51:24;97792.59;;;10.15;60.70
33845;BME280;20145;43.118;25.694;2024-01-16T00:53:50;97774.88;;;10.06;61.70
33845;BME280;20145;43.118;25.694;2024-01-16T00:56:16;97788.53;;;10.08;60.94
33845;BME280;20145;43.118;25.694;2024-01-16T00:58:42;97770.03;;;9.97;60.95
33845;BME280;20145;43.118;25.694;2024-01-16T01:01:07;97788.59;;;10.07;60.49
33845;BME280;20145;43.118;25.694;2024-01-16T01:03:33;97789.44;;;10.07;61.28
33845;BME280;20145;43.118;25.694;2024-01-16T01:06:00;97790.28;;;10.08;62.04
33845;BME280;20145;43.118;25.694;2024-01-16T01:08:26;97788.72;;;10.03;61.36
33845;BME280;20145;43.118;25.694;2024-01-16T01:10:52;97772.16;;;9.86;61.56
33845;BME280;20145;43.118;25.694;2024-01-16T01:13:17;97736.09;;;9.62;62.94
33845;BME280;20145;43.118;25.694;2024-01-16T01:15:43;97751.34;;;9.68;62.11
33845;BME280;20145;43.118;25.694;2024-01-16T01:18:09;97762.53;;;9.67;63.51
33845;BME280;20145;43.118;25.694;2024-01-16T01:20:35;97775.22;;;9.72;62.68
33845;BME280;20145;43.118;25.694;2024-01-16T01:23:01;97750.59;;;9.65;63.42
33845;BME280;20145;43.118;25.694;2024-01-16T01:25:27;97792.84;;;9.84;62.60
33845;BME280;20145;43.118;25.694;2024-01-16T01:27:52;97794.19;;;9.94;63.23
33845;BME280;20145;43.118;25.694;2024-01-16T01:30:18;97776.81;;;9.76;62.33
33845;BME280;20145;43.118;25.694;2024-01-16T01:32:44;97807.41;;;9.85;62.00
33845;BME280;20145;43.118;25.694;2024-01-16T01:35:09;97784.16;;;9.61;63.19
33845;BME280;20145;43.118;25.694;2024-01-16T01:37:37;97778.13;;;9.63;63.97
33845;BME280;20145;43.118;25.694;2024-01-16T01:40:02;97800.00;;;9.76;63.54
33845;BME280;20145;43.118;25.694;2024-01-16T01:42:28;97807.66;;;9.77;64.07
33845;BME280;20145;43.118;25.694;2024-01-16T01:44:55;97818.53;;;9.86;63.67
33845;BME280;20145;43.118;25.694;2024-01-16T01:47:20;97804.28;;;9.75;64.10
33845;BME280;20145;43.118;25.694;2024-01-16T01:49:46;97828.16;;;9.80;62.71
33845;BME280;20145;43.118;25.694;2024-01-16T01:52:13;97830.00;;;9.77;63.17
33845;BME280;20145;43.118;25.694;2024-01-16T01:54:40;97809.84;;;9.65;62.98
33845;BME280;20145;43.118;25.694;2024-01-16T01:57:08;97813.13;;;9.68;63.36
33845;BME280;20145;43.118;25.694;2024-01-16T01:59:34;97851.41;;;9.79;62.94
33845;BME280;20145;43.118;25.694;2024-01-16T02:02:00;97860.69;;;9.83;62.64
33845;BME280;20145;43.118;25.694;2024-01-16T02:04:27;97828.63;;;9.67;62.90
33845;BME280;20145;43.118;25.694;2024-01-16T02:06:53;97847.13;;;9.78;63.59
33845;BME280;20145;43.118;25.694;2024-01-16T02:09:19;97855.66;;;9.80;62.94
33845;BME280;20145;43.118;25.694;2024-01-16T02:11:45;97815.28;;;9.55;62.70
33845;BME280;20145;43.118;25.694;2024-01-16T02:14:11;97879.66;;;9.80;63.69
33845;BME280;20145;43.118;25.694;2024-01-16T02:16:39;97872.25;;;9.71;63.62
33845;BME280;20145;43.118;25.694;2024-01-16T02:19:04;97884.13;;;9.75;64.36
33845;BME280;20145;43.118;25.694;2024-01-16T02:21:39;97908.41;;;9.68;63.94
33845;BME280;20145;43.118;25.694;2024-01-16T02:24:06;97888.72;;;9.41;64.09
33845;BME280;20145;43.118;25.694;2024-01-16T02:26:32;97921.72;;;9.54;65.09
33845;BME280;20145;43.118;25.694;2024-01-16T02:29:01;97877.69;;;9.09;67.56
33845;BME280;20145;43.118;25.694;2024-01-16T02:31:27;97939.59;;;9.32;69.19
33845;BME280;20145;43.118;25.694;2024-01-16T02:33:52;97951.88;;;9.23;70.42
33845;BME280;20145;43.118;25.694;2024-01-16T02:36:18;97951.63;;;9.02;72.25
33845;BME280;20145;43.118;25.694;2024-01-16T02:38:44;97979.97;;;8.71;74.20
33845;BME280;20145;43.118;25.694;2024-01-16T02:41:11;97973.13;;;8.39;76.23
33845;BME280;20145;43.118;25.694;2024-01-16T02:43:37;97991.59;;;8.19;79.02
33845;BME280;20145;43.118;25.694;2024-01-16T02:46:03;97990.38;;;7.99;80.31
33845;BME280;20145;43.118;25.694;2024-01-16T02:48:29;97990.72;;;7.84;81.63
33845;BME280;20145;43.118;25.694;2024-01-16T02:50:54;97996.16;;;7.73;81.94
33845;BME280;20145;43.118;25.694;2024-01-16T02:53:20;98001.41;;;7.67;81.55
33845;BME280;20145;43.118;25.694;2024-01-16T02:55:46;97977.94;;;7.47;80.80
33845;BME280;20145;43.118;25.694;2024-01-16T02:58:11;98029.25;;;7.84;80.06
33845;BME280;20145;43.118;25.694;2024-01-16T03:00:37;98005.69;;;7.67;80.23
33845;BME280;20145;43.118;25.694;2024-01-16T03:03:02;98016.59;;;7.76;79.59
33845;BME280;20145;43.118;25.694;2024-01-16T03:05:28;98064.31;;;7.85;80.68
33845;BME280;20145;43.118;25.694;2024-01-16T03:07:54;98053.84;;;7.57;80.90
33845;BME280;20145;43.118;25.694;2024-01-16T03:10:20;98061.31;;;7.27;81.64
33845;BME280;20145;43.118;25.694;2024-01-16T03:12:47;98064.78;;;7.25;81.28
33845;BME280;20145;43.118;25.694;2024-01-16T03:15:12;98100.59;;;7.29;81.33
33845;BME280;20145;43.118;25.694;2024-01-16T03:17:38;98099.09;;;7.19;81.74
33845;BME280;20145;43.118;25.694;2024-01-16T03:20:04;98054.63;;;6.75;80.48
33845;BME280;20145;43.118;25.694;2024-01-16T03:22:30;98119.50;;;6.79;82.28
33845;BME280;20145;43.118;25.694;2024-01-16T03:24:55;98138.66;;;6.58;81.82
33845;BME280;20145;43.118;25.694;2024-01-16T03:27:22;98128.13;;;6.22;82.88
33845;BME280;20145;43.118;25.694;2024-01-16T03:29:47;98147.34;;;5.87;83.40
33845;BME280;20145;43.118;25.694;2024-01-16T03:32:13;98182.44;;;5.82;83.97
33845;BME280;20145;43.118;25.694;2024-01-16T03:34:39;98189.50;;;5.62;83.35
33845;BME280;20145;43.118;25.694;2024-01-16T03:37:05;98212.09;;;5.24;83.25
33845;BME280;20145;43.118;25.694;2024-01-16T03:39:32;98219.31;;;4.78;83.54
33845;BME280;20145;43.118;25.694;2024-01-16T03:41:59;98222.84;;;4.61;85.23
33845;BME280;20145;43.118;25.694;2024-01-16T03:44:25;98200.13;;;4.24;85.11
33845;BME280;20145;43.118;25.694;2024-01-16T03:46:51;98254.56;;;4.30;85.74
33845;BME280;20145;43.118;25.694;2024-01-16T03:49:17;98241.00;;;4.21;86.79
33845;BME280;20145;43.118;25.694;2024-01-16T03:51:42;98247.00;;;4.08;87.99
33845;BME280;20145;43.118;25.694;2024-01-16T03:54:12;98271.66;;;4.14;88.81
33845;BME280;20145;43.118;25.694;2024-01-16T03:56:39;98286.19;;;3.93;89.50
33845;BME280;20145;43.118;25.694;2024-01-16T03:59:05;98285.38;;;3.87;88.97
33845;BME280;20145;43.118;25.694;2024-01-16T04:01:31;98307.47;;;3.92;88.84
33845;BME280;20145;43.118;25.694;2024-01-16T04:03:58;98339.75;;;4.04;89.68
33845;BME280;20145;43.118;25.694;2024-01-16T04:06:23;98326.19;;;3.88;89.37
33845;BME280;20145;43.118;25.694;2024-01-16T04:08:49;98312.59;;;3.82;89.88
33845;BME280;20145;43.118;25.694;2024-01-16T04:11:15;98366.97;;;4.08;88.65
33845;BME280;20145;43.118;25.694;2024-01-16T04:13:41;98372.03;;;4.17;88.47
33845;BME280;20145;43.118;25.694;2024-01-16T04:19:12;98355.84;;;4.20;87.98
33845;BME280;20145;43.118;25.694;2024-01-16T04:21:38;98346.53;;;4.14;87.66
33845;BME280;20145;43.118;25.694;2024-01-16T04:24:03;98336.34;;;4.05;87.27
33845;BME280;20145;43.118;25.694;2024-01-16T04:26:29;98332.13;;;3.96;87.11
33845;BME280;20145;43.118;25.694;2024-01-16T04:28:55;98360.97;;;4.17;88.02
33845;BME280;20145;43.118;25.694;2024-01-16T04:31:20;98373.66;;;4.32;87.87
33845;BME280;20145;43.118;25.694;2024-01-16T04:33:47;98398.31;;;4.45;87.78
33845;BME280;20145;43.118;25.694;2024-01-16T04:39:35;98424.63;;;4.64;89.63
33845;BME280;20145;43.118;25.694;2024-01-16T04:42:01;98419.50;;;4.72;89.39
33845;BME280;20145;43.118;25.694;2024-01-16T04:44:27;98421.19;;;4.75;88.59
33845;BME280;20145;43.118;25.694;2024-01-16T04:46:53;98410.09;;;4.71;88.59
33845;BME280;20145;43.118;25.694;2024-01-16T04:49:18;98438.13;;;4.92;88.41
33845;BME280;20145;43.118;25.694;2024-01-16T04:51:44;98435.56;;;4.94;88.01
33845;BME280;20145;43.118;25.694;2024-01-16T04:54:11;98391.44;;;4.63;89.12
33845;BME280;20145;43.118;25.694;2024-01-16T04:56:37;98410.13;;;4.68;89.74
33845;BME280;20145;43.118;25.694;2024-01-16T04:59:03;98454.38;;;4.76;90.04
33845;BME280;20145;43.118;25.694;2024-01-16T05:01:28;98471.38;;;4.82;90.37
33845;BME280;20145;43.118;25.694;2024-01-16T05:03:57;98474.84;;;4.67;91.06
33845;BME280;20145;43.118;25.694;2024-01-16T05:06:23;98431.53;;;4.38;90.80
33845;BME280;20145;43.118;25.694;2024-01-16T05:08:48;98473.16;;;4.60;90.00
33845;BME280;20145;43.118;25.694;2024-01-16T05:11:15;98491.03;;;4.69;90.43
33845;BME280;20145;43.118;25.694;2024-01-16T05:13:48;98491.84;;;4.76;91.29
33845;BME280;20145;43.118;25.694;2024-01-16T05:16:13;98490.22;;;4.58;91.29
33845;BME280;20145;43.118;25.694;2024-01-16T05:18:41;98491.09;;;4.52;91.31
33845;BME280;20145;43.118;25.694;2024-01-16T05:21:09;98525.13;;;4.54;92.54
33845;BME280;20145;43.118;25.694;2024-01-16T05:23:35;98526.84;;;4.52;92.14
33845;BME280;20145;43.118;25.694;2024-01-16T05:26:00;98520.88;;;4.38;93.00
33845;BME280;20145;43.118;25.694;2024-01-16T05:28:26;98508.19;;;4.19;92.38
33845;BME280;20145;43.118;25.694;2024-01-16T05:30:52;98497.13;;;4.02;93.07
33845;BME280;20145;43.118;25.694;2024-01-16T05:33:17;98497.13;;;4.22;92.29
33845;BME280;20145;43.118;25.694;2024-01-16T05:35:43;98521.75;;;4.37;92.58
33845;BME280;20145;43.118;25.694;2024-01-16T05:38:10;98480.94;;;4.09;91.71
33845;BME280;20145;43.118;25.694;2024-01-16T05:40:38;98516.66;;;4.15;90.72
33845;BME280;20145;43.118;25.694;2024-01-16T05:43:08;98570.28;;;4.44;89.41
33845;BME280;20145;43.118;25.694;2024-01-16T05:45:34;98480.13;;;3.89;89.23
33845;BME280;20145;43.118;25.694;2024-01-16T05:48:01;98565.16;;;4.41;90.01
33845;BME280;20145;43.118;25.694;2024-01-16T05:50:28;98560.91;;;4.20;88.53
33845;BME280;20145;43.118;25.694;2024-01-16T05:52:55;98568.59;;;4.33;88.67
33845;BME280;20145;43.118;25.694;2024-01-16T05:55:21;98567.72;;;4.18;89.76
33845;BME280;20145;43.118;25.694;2024-01-16T05:57:47;98577.06;;;4.32;89.52
33845;BME280;20145;43.118;25.694;2024-01-16T06:00:14;98548.16;;;4.07;88.75
33845;BME280;20145;43.118;25.694;2024-01-16T06:02:40;98607.72;;;4.39;89.27
33845;BME280;20145;43.118;25.694;2024-01-16T06:05:09;98579.66;;;4.22;88.18
33845;BME280;20145;43.118;25.694;2024-01-16T06:07:35;98616.25;;;4.38;87.60
33845;BME280;20145;43.118;25.694;2024-01-16T06:10:00;98621.34;;;4.43;87.24
33845;BME280;20145;43.118;25.694;2024-01-16T06:12:27;98634.13;;;4.49;87.07
33845;BME280;20145;43.118;25.694;2024-01-16T06:14:53;98628.16;;;4.41;85.35
33845;BME280;20145;43.118;25.694;2024-01-16T06:17:19;98665.63;;;4.53;84.98
33845;BME280;20145;43.118;25.694;2024-01-16T06:19:49;98669.88;;;4.61;85.58
33845;BME280;20145;43.118;25.694;2024-01-16T06:22:14;98642.63;;;4.30;85.34
33845;BME280;20145;43.118;25.694;2024-01-16T06:24:40;98649.44;;;4.28;84.94
33845;BME280;20145;43.118;25.694;2024-01-16T06:27:06;98644.31;;;4.34;84.25
33845;BME280;20145;43.118;25.694;2024-01-16T06:29:32;98669.88;;;4.47;84.49
33845;BME280;20145;43.118;25.694;2024-01-16T06:31:58;98690.31;;;4.55;83.57
33845;BME280;20145;43.118;25.694;2024-01-16T06:34:24;98654.53;;;4.31;82.54
33845;BME280;20145;43.118;25.694;2024-01-16T06:36:52;98667.31;;;4.35;82.70
33845;BME280;20145;43.118;25.694;2024-01-16T06:39:18;98692.84;;;4.47;81.87
33845;BME280;20145;43.118;25.694;2024-01-16T06:42:02;98688.59;;;4.36;82.82
33845;BME280;20145;43.118;25.694;2024-01-16T06:44:30;98684.34;;;4.33;82.10
33845;BME280;20145;43.118;25.694;2024-01-16T06:46:55;98674.97;;;4.35;81.94
33845;BME280;20145;43.118;25.694;2024-01-16T06:49:21;98675.81;;;4.39;81.48
33845;BME280;20145;43.118;25.694;2024-01-16T06:51:46;98689.44;;;4.42;81.11
33845;BME280;20145;43.118;25.694;2024-01-16T06:54:12;98703.91;;;4.34;81.28
33845;BME280;20145;43.118;25.694;2024-01-16T06:56:38;98702.22;;;4.33;80.79
33845;BME280;20145;43.118;25.694;2024-01-16T06:59:03;98721.78;;;4.42;80.73
33845;BME280;20145;43.118;25.694;2024-01-16T07:01:29;98721.78;;;4.39;80.40
33845;BME280;20145;43.118;25.694;2024-01-16T07:03:56;98753.31;;;4.56;79.48
33845;BME280;20145;43.118;25.694;2024-01-16T07:06:21;98730.31;;;4.44;79.03
33845;BME280;20145;43.118;25.694;2024-01-16T07:08:47;98755.00;;;4.65;79.03
33845;BME280;20145;43.118;25.694;2024-01-16T07:11:13;98749.06;;;4.63;78.09
33845;BME280;20145;43.118;25.694;2024-01-16T07:13:40;98777.19;;;4.66;76.98
33845;BME280;20145;43.118;25.694;2024-01-16T07:16:10;98783.97;;;4.79;77.48
33845;BME280;20145;43.118;25.694;2024-01-16T07:18:37;98784.88;;;4.90;76.07
33845;BME280;20145;43.118;25.694;2024-01-16T07:21:03;98762.72;;;4.97;75.81
33845;BME280;20145;43.118;25.694;2024-01-16T07:23:29;98784.88;;;5.10;75.34
33845;BME280;20145;43.118;25.694;2024-01-16T07:25:55;98788.25;;;5.20;74.77
33845;BME280;20145;43.118;25.694;2024-01-16T07:28:21;98790.81;;;5.34;73.66
33845;BME280;20145;43.118;25.694;2024-01-16T07:30:47;98797.63;;;5.38;71.95
33845;BME280;20145;43.118;25.694;2024-01-16T07:33:13;98817.22;;;5.51;72.24
33845;BME280;20145;43.118;25.694;2024-01-16T07:35:39;98830.00;;;5.45;71.64
33845;BME280;20145;43.118;25.694;2024-01-16T07:38:13;98839.41;;;5.42;71.06
33845;BME280;20145;43.118;25.694;2024-01-16T07:40:38;98854.75;;;5.49;70.38
33845;BME280;20145;43.118;25.694;2024-01-16T07:43:04;98875.22;;;5.58;69.95
33845;BME280;20145;43.118;25.694;2024-01-16T07:45:29;98889.72;;;5.69;70.16
33845;BME280;20145;43.118;25.694;2024-01-16T07:47:55;98889.69;;;5.70;69.31
33845;BME280;20145;43.118;25.694;2024-01-16T07:50:21;98862.44;;;5.43;68.89
33845;BME280;20145;43.118;25.694;2024-01-16T07:52:46;98884.59;;;5.61;68.25
33845;BME280;20145;43.118;25.694;2024-01-16T07:55:13;98869.22;;;5.56;66.83
33845;BME280;20145;43.118;25.694;2024-01-16T07:57:39;98893.97;;;5.53;68.17
33845;BME280;20145;43.118;25.694;2024-01-16T08:00:05;98914.44;;;5.56;67.75
33845;BME280;20145;43.118;25.694;2024-01-16T08:02:34;98920.41;;;5.40;67.08
33845;BME280;20145;43.118;25.694;2024-01-16T08:05:01;98905.91;;;5.37;67.02
33845;BME280;20145;43.118;25.694;2024-01-16T08:07:27;98935.78;;;5.49;66.43
33845;BME280;20145;43.118;25.694;2024-01-16T08:09:52;98925.53;;;5.49;66.35
33845;BME280;20145;43.118;25.694;2024-01-16T08:12:18;98913.56;;;5.28;65.47
33845;BME280;20145;43.118;25.694;2024-01-16T08:14:44;98918.69;;;5.37;66.29
33845;BME280;20145;43.118;25.694;2024-01-16T08:17:09;98912.72;;;5.29;65.69
33845;BME280;20145;43.118;25.694;2024-01-16T08:19:35;98914.44;;;5.33;66.36
33845;BME280;20145;43.118;25.694;2024-01-16T08:22:01;98948.56;;;5.67;64.32
33845;BME280;20145;43.118;25.694;2024-01-16T08:24:31;98957.94;;;5.84;64.00
33845;BME280;20145;43.118;25.694;2024-01-16T08:26:57;98961.34;;;5.75;63.76
33845;BME280;20145;43.118;25.694;2024-01-16T08:29:24;98980.97;;;5.77;63.86
33845;BME280;20145;43.118;25.694;2024-01-16T08:31:51;98960.50;;;5.71;61.92
33845;BME280;20145;43.118;25.694;2024-01-16T08:34:20;98977.59;;;5.88;62.73
33845;BME280;20145;43.118;25.694;2024-01-16T08:36:46;98953.66;;;5.70;61.32
33845;BME280;20145;43.118;25.694;2024-01-16T08:39:12;98985.25;;;5.66;62.81
33845;BME280;20145;43.118;25.694;2024-01-16T08:41:38;98974.13;;;5.53;61.79
33845;BME280;20145;43.118;25.694;2024-01-16T08:44:04;98986.91;;;5.43;61.56
33845;BME280;20145;43.118;25.694;2024-01-16T08:46:29;99010.75;;;5.26;62.27
33845;BME280;20145;43.118;25.694;2024-01-16T08:48:55;98992.00;;;5.24;62.20
33845;BME280;20145;43.118;25.694;2024-01-16T08:51:20;99011.66;;;5.45;61.32
33845;BME280;20145;43.118;25.694;2024-01-16T08:53:46;98999.75;;;5.58;61.81
33845;BME280;20145;43.118;25.694;2024-01-16T08:56:12;98998.88;;;5.79;61.15
33845;BME280;20145;43.118;25.694;2024-01-16T08:58:38;99033.88;;;5.92;59.96
33845;BME280;20145;43.118;25.694;2024-01-16T09:01:05;99017.66;;;5.90;59.76
33845;BME280;20145;43.118;25.694;2024-01-16T09:03:32;99026.22;;;5.88;59.64
33845;BME280;20145;43.118;25.694;2024-01-16T09:05:58;99038.19;;;6.12;59.18
33845;BME280;20145;43.118;25.694;2024-01-16T09:08:25;99039.03;;;6.17;59.33
33845;BME280;20145;43.118;25.694;2024-01-16T09:10:55;99048.44;;;6.29;58.90
33845;BME280;20145;43.118;25.694;2024-01-16T09:13:22;99054.41;;;6.17;58.07
33845;BME280;20145;43.118;25.694;2024-01-16T09:15:49;99024.56;;;6.13;59.03
33845;BME280;20145;43.118;25.694;2024-01-16T09:18:15;99022.84;;;5.99;58.43
33845;BME280;20145;43.118;25.694;2024-01-16T09:20:42;99040.75;;;6.13;58.80
33845;BME280;20145;43.118;25.694;2024-01-16T09:23:08;99041.59;;;6.12;58.63
33845;BME280;20145;43.118;25.694;2024-01-16T09:25:34;99002.31;;;5.90;58.61
33845;BME280;20145;43.118;25.694;2024-01-16T09:28:01;99005.69;;;5.71;59.23
33845;BME280;20145;43.118;25.694;2024-01-16T09:30:26;98980.97;;;5.64;59.29
33845;BME280;20145;43.118;25.694;2024-01-16T09:32:52;99027.91;;;5.86;58.40
33845;BME280;20145;43.118;25.694;2024-01-16T09:35:18;99030.47;;;5.78;58.99
33845;BME280;20145;43.118;25.694;2024-01-16T09:37:44;99053.53;;;5.89;59.09
33845;BME280;20145;43.118;25.694;2024-01-16T09:40:10;99034.72;;;5.90;59.56
33845;BME280;20145;43.118;25.694;2024-01-16T09:42:36;99013.44;;;5.94;58.59
33845;BME280;20145;43.118;25.694;2024-01-16T09:45:02;99028.78;;;5.95;58.25
33845;BME280;20145;43.118;25.694;2024-01-16T09:47:32;99048.44;;;5.98;59.19
33845;BME280;20145;43.118;25.694;2024-01-16T09:53:20;99052.72;;;6.11;58.26
33845;BME280;20145;43.118;25.694;2024-01-16T09:55:49;99059.53;;;6.14;59.30
33845;BME280;20145;43.118;25.694;2024-01-16T09:58:19;98975.84;;;5.61;57.78
33845;BME280;20145;43.118;25.694;2024-01-16T10:00:46;99062.97;;;6.19;58.42
33845;BME280;20145;43.118;25.694;2024-01-16T10:03:13;99050.13;;;6.28;58.97
33845;BME280;20145;43.118;25.694;2024-01-16T10:05:43;99073.19;;;6.39;58.16
33845;BME280;20145;43.118;25.694;2024-01-16T10:08:09;99054.41;;;6.35;58.69
33845;BME280;20145;43.118;25.694;2024-01-16T10:10:35;99071.50;;;6.30;58.97
33845;BME280;20145;43.118;25.694;2024-01-16T10:13:02;99055.28;;;6.13;58.98
33845;BME280;20145;43.118;25.694;2024-01-16T10:15:28;99063.81;;;6.21;60.17
33845;BME280;20145;43.118;25.694;2024-01-16T10:17:54;99074.91;;;6.21;57.81
33845;BME280;20145;43.118;25.694;2024-01-16T10:20:32;99056.97;;;6.06;57.96
33845;BME280;20145;43.118;25.694;2024-01-16T10:22:58;99078.31;;;6.14;57.35
33845;BME280;20145;43.118;25.694;2024-01-16T10:25:24;99070.56;;;5.84;58.46
33845;BME280;20145;43.118;25.694;2024-01-16T10:28:03;99071.41;;;5.84;58.82
33845;BME280;20145;43.118;25.694;2024-01-16T10:30:29;99103.91;;;6.03;59.40
33845;BME280;20145;43.118;25.694;2024-01-16T10:32:55;99070.59;;;5.88;59.67
33845;BME280;20145;43.118;25.694;2024-01-16T10:35:23;99051.00;;;5.95;58.67
33845;BME280;20145;43.118;25.694;2024-01-16T10:37:50;99095.41;;;6.11;57.69
33845;BME280;20145;43.118;25.694;2024-01-16T10:40:20;99081.72;;;6.25;56.81
33845;BME280;20145;43.118;25.694;2024-01-16T10:43:00;99105.66;;;6.38;55.58
33845;BME280;20145;43.118;25.694;2024-01-16T10:45:26;99086.03;;;6.27;55.32
33845;BME280;20145;43.118;25.694;2024-01-16T10:48:07;99020.25;;;5.86;55.81
33845;BME280;20145;43.118;25.694;2024-01-16T10:50:35;99091.13;;;6.22;54.88
33845;BME280;20145;43.118;25.694;2024-01-16T10:53:04;99068.94;;;6.02;54.82
33845;BME280;20145;43.118;25.694;2024-01-16T10:55:31;99120.16;;;6.39;55.21
33845;BME280;20145;43.118;25.694;2024-01-16T10:57:58;99100.53;;;6.32;54.25
33845;BME280;20145;43.118;25.694;2024-01-16T11:00:27;99130.41;;;6.55;54.46
33845;BME280;20145;43.118;25.694;2024-01-16T11:03:09;99116.75;;;6.31;52.90
33845;BME280;20145;43.118;25.694;2024-01-16T11:05:36;99133.84;;;6.41;53.19
33845;BME280;20145;43.118;25.694;2024-01-16T11:08:03;99120.16;;;6.24;53.42
33845;BME280;20145;43.118;25.694;2024-01-16T11:10:30;99112.47;;;6.06;54.07
33845;BME280;20145;43.118;25.694;2024-01-16T11:13:00;99134.66;;;6.05;54.53
33845;BME280;20145;43.118;25.694;2024-01-16T11:15:27;99143.13;;;5.92;54.67
33845;BME280;20145;43.118;25.694;2024-01-16T11:17:55;99154.28;;;6.00;54.48
33845;BME280;20145;43.118;25.694;2024-01-16T11:20:23;99141.41;;;5.89;55.91
33845;BME280;20145;43.118;25.694;2024-01-16T11:22:50;99154.19;;;5.78;54.50
33845;BME280;20145;43.118;25.694;2024-01-16T11:25:17;99167.88;;;5.82;54.79
33845;BME280;20145;43.118;25.694;2024-01-16T11:27:46;99155.06;;;5.82;55.61
33845;BME280;20145;43.118;25.694;2024-01-16T11:30:29;99136.28;;;5.89;54.68
33845;BME280;20145;43.118;25.694;2024-01-16T11:32:56;99125.19;;;5.87;55.67
33845;BME280;20145;43.118;25.694;2024-01-16T11:35:32;99127.00;;;6.10;54.76
33845;BME280;20145;43.118;25.694;2024-01-16T11:38:25;99154.31;;;6.23;55.48
33845;BME280;20145;43.118;25.694;2024-01-16T11:40:54;99164.56;;;6.20;56.22
33845;BME280;20145;43.118;25.694;2024-01-16T11:46:08;99168.00;;;6.40;56.31
33845;BME280;20145;43.118;25.694;2024-01-16T11:48:34;99156.03;;;6.36;55.77
33845;BME280;20145;43.118;25.694;2024-01-16T11:51:23;99141.50;;;6.14;56.35
33845;BME280;20145;43.118;25.694;2024-01-16T11:53:49;99184.22;;;6.39;56.97
33845;BME280;20145;43.118;25.694;2024-01-16T12:01:31;99199.59;;;6.38;57.16
33845;BME280;20145;43.118;25.694;2024-01-16T12:04:07;99185.06;;;6.37;56.49
33845;BME280;20145;43.118;25.694;2024-01-16T12:06:35;99196.19;;;6.36;56.58
33845;BME280;20145;43.118;25.694;2024-01-16T12:11:38;99228.53;;;6.03;57.70
33845;BME280;20145;43.118;25.694;2024-01-16T12:14:04;99225.97;;;6.06;57.95
33845;BME280;20145;43.118;25.694;2024-01-16T12:16:30;99216.56;;;6.00;58.70
33845;BME280;20145;43.118;25.694;2024-01-16T12:19:08;99220.00;;;5.96;58.26
33845;BME280;20145;43.118;25.694;2024-01-16T12:21:52;99234.53;;;6.05;58.69
33845;BME280;20145;43.118;25.694;2024-01-16T12:24:18;99213.94;;;5.85;59.54
33845;BME280;20145;43.118;25.694;2024-01-16T12:26:43;99227.69;;;6.04;59.04
33845;BME280;20145;43.118;25.694;2024-01-16T12:29:09;99197.72;;;5.86;59.63
33845;BME280;20145;43.118;25.694;2024-01-16T12:31:35;99243.91;;;6.01;58.98
33845;BME280;20145;43.118;25.694;2024-01-16T12:34:08;99249.00;;;5.97;59.81
33845;BME280;20145;43.118;25.694;2024-01-16T12:36:34;99258.44;;;6.09;59.62
33845;BME280;20145;43.118;25.694;2024-01-16T12:39:00;99257.56;;;6.05;59.05
33845;BME280;20145;43.118;25.694;2024-01-16T12:41:30;99251.47;;;5.80;60.01
33845;BME280;20145;43.118;25.694;2024-01-16T12:43:58;99253.94;;;5.63;60.83
33845;BME280;20145;43.118;25.694;2024-01-16T12:46:25;99270.19;;;5.73;61.81
33845;BME280;20145;43.118;25.694;2024-01-16T12:48:51;99292.41;;;5.77;61.45
33845;BME280;20145;43.118;25.694;2024-01-16T12:51:20;99223.84;;;5.22;61.66
33845;BME280;20145;43.118;25.694;2024-01-16T12:53:50;99272.63;;;5.51;61.54
33845;BME280;20145;43.118;25.694;2024-01-16T12:56:19;99290.59;;;5.57;61.27
33845;BME280;20145;43.118;25.694;2024-01-16T12:58:46;99278.53;;;5.38;62.17
33845;BME280;20145;43.118;25.694;2024-01-16T13:03:48;99321.31;;;5.62;62.11
33845;BME280;20145;43.118;25.694;2024-01-16T13:06:18;99304.25;;;5.61;61.78
33845;BME280;20145;43.118;25.694;2024-01-16T13:08:46;99308.53;;;5.64;61.62
33845;BME280;20145;43.118;25.694;2024-01-16T13:11:12;99311.00;;;5.50;61.76
33845;BME280;20145;43.118;25.694;2024-01-16T13:13:41;99321.25;;;5.50;62.10
33845;BME280;20145;43.118;25.694;2024-01-16T13:16:07;99311.81;;;5.41;63.05
33845;BME280;20145;43.118;25.694;2024-01-16T13:18:34;99319.47;;;5.41;62.55
33845;BME280;20145;43.118;25.694;2024-01-16T13:21:01;99307.41;;;5.26;63.18